sensor_id;sensor_type;location;lat;lon;timestamp;P1;durP1;ratioP1;P2;durP2;ratioP2
22826;SDS011;11580;52.562;13.418;2023-03-11T00:00:34;6.50;;;5.83;;
22826;SDS011;11580;52.562;13.418;2023-03-11T00:03:04;5.37;;;4.60;;
22826;SDS011;11580;52.562;13.418;2023-03-11T00:05:34;4.60;;;4.20;;
22826;SDS011;11580;52.562;13.418;2023-03-11T00:08:05;5.73;;;5.13;;
22826;SDS011;11580;52.562;13.418;2023-03-11T00:10:34;9.20;;;6.30;;
22826;SDS011;11580;52.562;13.418;2023-03-11T00:13:05;7.73;;;6.93;;
22826;SDS011;11580;52.562;13.418;2023-03-11T00:15:36;7.73;;;6.93;;
22826;SDS011;11580;52.562;13.418;2023-03-11T00:18:06;8.60;;;7.70;;
22826;SDS011;11580;52.562;13.418;2023-03-11T00:20:34;8.87;;;7.53;;
22826;SDS011;11580;52.562;13.418;2023-03-11T00:23:04;9.13;;;7.67;;
22826;SDS011;11580;52.562;13.418;2023-03-11T00:25:33;10.80;;;7.83;;
22826;SDS011;11580;52.562;13.418;2023-03-11T00:28:03;7.83;;;7.03;;
22826;SDS011;11580;52.562;13.418;2023-03-11T00:30:34;7.77;;;6.97;;
22826;SDS011;11580;52.562;13.418;2023-03-11T00:33:02;9.30;;;7.60;;
22826;SDS011;11580;52.562;13.418;2023-03-11T00:35:31;8.70;;;7.80;;
22826;SDS011;11580;52.562;13.418;2023-03-11T00:38:00;7.37;;;6.43;;
22826;SDS011;11580;52.562;13.418;2023-03-11T00:40:31;6.80;;;6.10;;
22826;SDS011;11580;52.562;13.418;2023-03-11T00:43:01;7.33;;;6.63;;
22826;SDS011;11580;52.562;13.418;2023-03-11T00:45:30;8.13;;;6.53;;
22826;SDS011;11580;52.562;13.418;2023-03-11T00:47:58;7.40;;;6.70;;
22826;SDS011;11580;52.562;13.418;2023-03-11T00:50:26;6.60;;;6.00;;
22826;SDS011;11580;52.562;13.418;2023-03-11T00:52:56;7.37;;;6.67;;
22826;SDS011;11580;52.562;13.418;2023-03-11T00:55:25;7.90;;;6.60;;
22826;SDS011;11580;52.562;13.418;2023-03-11T00:57:56;7.87;;;7.07;;
22826;SDS011;11580;52.562;13.418;2023-03-11T01:00:32;7.77;;;6.97;;
22826;SDS011;11580;52.562;13.418;2023-03-11T01:03:01;8.80;;;7.47;;
22826;SDS011;11580;52.562;13.418;2023-03-11T01:05:29;8.83;;;7.93;;
22826;SDS011;11580;52.562;13.418;2023-03-11T01:08:00;8.00;;;7.30;;
22826;SDS011;11580;52.562;13.418;2023-03-11T01:10:29;9.63;;;7.40;;
22826;SDS011;11580;52.562;13.418;2023-03-11T01:13:01;10.23;;;8.73;;
22826;SDS011;11580;52.562;13.418;2023-03-11T01:15:30;8.70;;;7.90;;
22826;SDS011;11580;52.562;13.418;2023-03-11T01:18:01;8.80;;;7.90;;
22826;SDS011;11580;52.562;13.418;2023-03-11T01:20:32;8.70;;;7.80;;
22826;SDS011;11580;52.562;13.418;2023-03-11T01:22:59;9.37;;;8.47;;
22826;SDS011;11580;52.562;13.418;2023-03-11T01:25:26;10.27;;;8.27;;
22826;SDS011;11580;52.562;13.418;2023-03-11T01:27:56;9.67;;;8.67;;
22826;SDS011;11580;52.562;13.418;2023-03-11T01:30:23;9.83;;;8.73;;
22826;SDS011;11580;52.562;13.418;2023-03-11T01:32:54;9.00;;;8.13;;
22826;SDS011;11580;52.562;13.418;2023-03-11T01:35:24;7.80;;;7.10;;
22826;SDS011;11580;52.562;13.418;2023-03-11T01:37:54;9.70;;;8.70;;
22826;SDS011;11580;52.562;13.418;2023-03-11T01:40:23;7.33;;;6.63;;
22826;SDS011;11580;52.562;13.418;2023-03-11T01:42:56;7.40;;;6.23;;
22826;SDS011;11580;52.562;13.418;2023-03-11T01:45:40;6.80;;;6.20;;
22826;SDS011;11580;52.562;13.418;2023-03-11T01:48:34;4.87;;;4.47;;
22826;SDS011;11580;52.562;13.418;2023-03-11T01:51:03;5.17;;;4.63;;
22826;SDS011;11580;52.562;13.418;2023-03-11T01:53:31;5.67;;;5.17;;
22826;SDS011;11580;52.562;13.418;2023-03-11T01:56:00;4.70;;;4.30;;
22826;SDS011;11580;52.562;13.418;2023-03-11T01:58:31;3.80;;;3.50;;
22826;SDS011;11580;52.562;13.418;2023-03-11T02:01:04;3.40;;;3.10;;
22826;SDS011;11580;52.562;13.418;2023-03-11T02:03:35;2.90;;;2.70;;
22826;SDS011;11580;52.562;13.418;2023-03-11T02:06:07;2.70;;;2.50;;
22826;SDS011;11580;52.562;13.418;2023-03-11T02:08:39;2.83;;;2.50;;
22826;SDS011;11580;52.562;13.418;2023-03-11T02:11:11;2.30;;;2.20;;
22826;SDS011;11580;52.562;13.418;2023-03-11T02:13:43;1.93;;;1.83;;
22826;SDS011;11580;52.562;13.418;2023-03-11T02:16:12;2.00;;;1.90;;
22826;SDS011;11580;52.562;13.418;2023-03-11T02:18:40;2.07;;;1.97;;
22826;SDS011;11580;52.562;13.418;2023-03-11T02:21:12;1.80;;;1.70;;
22826;SDS011;11580;52.562;13.418;2023-03-11T02:23:54;1.50;;;1.40;;
22826;SDS011;11580;52.562;13.418;2023-03-11T02:26:29;1.50;;;1.40;;
22826;SDS011;11580;52.562;13.418;2023-03-11T02:29:08;1.97;;;1.77;;
22826;SDS011;11580;52.562;13.418;2023-03-11T02:31:37;1.50;;;1.40;;
22826;SDS011;11580;52.562;13.418;2023-03-11T02:34:07;1.83;;;1.73;;
22826;SDS011;11580;52.562;13.418;2023-03-11T02:36:44;1.60;;;1.50;;
22826;SDS011;11580;52.562;13.418;2023-03-11T02:39:12;1.70;;;1.60;;
22826;SDS011;11580;52.562;13.418;2023-03-11T02:41:41;1.73;;;1.57;;
22826;SDS011;11580;52.562;13.418;2023-03-11T02:44:13;1.50;;;1.40;;
22826;SDS011;11580;52.562;13.418;2023-03-11T02:46:42;1.60;;;1.50;;
22826;SDS011;11580;52.562;13.418;2023-03-11T02:49:11;1.70;;;1.60;;
22826;SDS011;11580;52.562;13.418;2023-03-11T02:51:39;2.00;;;1.77;;
22826;SDS011;11580;52.562;13.418;2023-03-11T02:54:06;1.70;;;1.60;;
22826;SDS011;11580;52.562;13.418;2023-03-11T02:56:35;1.80;;;1.70;;
22826;SDS011;11580;52.562;13.418;2023-03-11T02:59:02;1.77;;;1.67;;
22826;SDS011;11580;52.562;13.418;2023-03-11T03:01:30;1.70;;;1.60;;
22826;SDS011;11580;52.562;13.418;2023-03-11T03:03:58;1.70;;;1.60;;
22826;SDS011;11580;52.562;13.418;2023-03-11T03:06:29;1.77;;;1.67;;
22826;SDS011;11580;52.562;13.418;2023-03-11T03:08:56;1.43;;;1.33;;
22826;SDS011;11580;52.562;13.418;2023-03-11T03:11:23;1.50;;;1.40;;
22826;SDS011;11580;52.562;13.418;2023-03-11T03:13:51;1.90;;;1.60;;
22826;SDS011;11580;52.562;13.418;2023-03-11T03:16:18;2.67;;;2.47;;
22826;SDS011;11580;52.562;13.418;2023-03-11T03:18:48;2.00;;;1.87;;
22826;SDS011;11580;52.562;13.418;2023-03-11T03:21:15;1.83;;;1.73;;
22826;SDS011;11580;52.562;13.418;2023-03-11T03:23:43;2.10;;;2.00;;
22826;SDS011;11580;52.562;13.418;2023-03-11T03:26:11;1.90;;;1.80;;
22826;SDS011;11580;52.562;13.418;2023-03-11T03:28:41;2.20;;;2.07;;
22826;SDS011;11580;52.562;13.418;2023-03-11T03:31:09;2.00;;;1.90;;
22826;SDS011;11580;52.562;13.418;2023-03-11T03:33:39;2.07;;;1.97;;
22826;SDS011;11580;52.562;13.418;2023-03-11T03:36:09;1.77;;;1.67;;
22826;SDS011;11580;52.562;13.418;2023-03-11T03:38:42;2.10;;;1.90;;
22826;SDS011;11580;52.562;13.418;2023-03-11T03:41:11;2.00;;;1.90;;
22826;SDS011;11580;52.562;13.418;2023-03-11T03:43:40;2.70;;;2.50;;
22826;SDS011;11580;52.562;13.418;2023-03-11T03:46:08;3.10;;;2.90;;
22826;SDS011;11580;52.562;13.418;2023-03-11T03:48:42;2.60;;;2.40;;
22826;SDS011;11580;52.562;13.418;2023-03-11T03:51:12;2.53;;;2.33;;
22826;SDS011;11580;52.562;13.418;2023-03-11T03:53:49;2.70;;;2.50;;
22826;SDS011;11580;52.562;13.418;2023-03-11T03:56:16;2.63;;;2.43;;
22826;SDS011;11580;52.562;13.418;2023-03-11T03:58:44;3.00;;;2.80;;
22826;SDS011;11580;52.562;13.418;2023-03-11T04:01:11;2.87;;;2.67;;
22826;SDS011;11580;52.562;13.418;2023-03-11T04:03:40;2.80;;;2.60;;
22826;SDS011;11580;52.562;13.418;2023-03-11T04:06:14;2.37;;;2.17;;
22826;SDS011;11580;52.562;13.418;2023-03-11T04:08:47;2.70;;;2.50;;
22826;SDS011;11580;52.562;13.418;2023-03-11T04:11:18;3.13;;;2.93;;
22826;SDS011;11580;52.562;13.418;2023-03-11T04:13:45;3.33;;;3.13;;
22826;SDS011;11580;52.562;13.418;2023-03-11T04:16:13;3.13;;;2.83;;
22826;SDS011;11580;52.562;13.418;2023-03-11T04:18:45;3.30;;;3.10;;
22826;SDS011;11580;52.562;13.418;2023-03-11T04:21:15;3.60;;;3.30;;
22826;SDS011;11580;52.562;13.418;2023-03-11T04:23:42;3.27;;;2.97;;
22826;SDS011;11580;52.562;13.418;2023-03-11T04:26:13;3.80;;;3.40;;
22826;SDS011;11580;52.562;13.418;2023-03-11T04:28:40;3.70;;;3.40;;
22826;SDS011;11580;52.562;13.418;2023-03-11T04:31:07;3.23;;;2.97;;
22826;SDS011;11580;52.562;13.418;2023-03-11T04:33:35;3.17;;;2.97;;
22826;SDS011;11580;52.562;13.418;2023-03-11T04:36:07;3.30;;;3.00;;
22826;SDS011;11580;52.562;13.418;2023-03-11T04:38:38;3.60;;;3.30;;
22826;SDS011;11580;52.562;13.418;2023-03-11T04:41:08;3.20;;;3.00;;
22826;SDS011;11580;52.562;13.418;2023-03-11T04:43:37;3.03;;;2.53;;
22826;SDS011;11580;52.562;13.418;2023-03-11T04:46:05;3.43;;;3.13;;
22826;SDS011;11580;52.562;13.418;2023-03-11T04:48:32;3.30;;;3.00;;
22826;SDS011;11580;52.562;13.418;2023-03-11T04:50:59;3.33;;;3.03;;
22826;SDS011;11580;52.562;13.418;2023-03-11T04:53:27;3.43;;;3.13;;
22826;SDS011;11580;52.562;13.418;2023-03-11T04:55:57;3.00;;;2.80;;
22826;SDS011;11580;52.562;13.418;2023-03-11T04:58:24;2.80;;;2.60;;
22826;SDS011;11580;52.562;13.418;2023-03-11T05:00:51;2.97;;;2.77;;
22826;SDS011;11580;52.562;13.418;2023-03-11T05:03:20;3.00;;;2.80;;
22826;SDS011;11580;52.562;13.418;2023-03-11T05:05:48;2.60;;;2.40;;
22826;SDS011;11580;52.562;13.418;2023-03-11T05:08:19;3.70;;;3.40;;
22826;SDS011;11580;52.562;13.418;2023-03-11T05:10:46;2.43;;;2.23;;
22826;SDS011;11580;52.562;13.418;2023-03-11T05:13:15;2.90;;;2.70;;
22826;SDS011;11580;52.562;13.418;2023-03-11T05:15:43;3.27;;;2.77;;
22826;SDS011;11580;52.562;13.418;2023-03-11T05:18:10;2.43;;;2.23;;
22826;SDS011;11580;52.562;13.418;2023-03-11T05:20:38;2.30;;;2.20;;
22826;SDS011;11580;52.562;13.418;2023-03-11T05:23:06;2.67;;;2.47;;
22826;SDS011;11580;52.562;13.418;2023-03-11T05:25:35;2.40;;;2.27;;
22826;SDS011;11580;52.562;13.418;2023-03-11T05:28:03;2.53;;;2.33;;
22826;SDS011;11580;52.562;13.418;2023-03-11T05:30:36;3.10;;;2.80;;
22826;SDS011;11580;52.562;13.418;2023-03-11T05:33:03;2.60;;;2.40;;
22826;SDS011;11580;52.562;13.418;2023-03-11T05:35:30;2.23;;;2.13;;
22826;SDS011;11580;52.562;13.418;2023-03-11T05:37:58;2.57;;;2.37;;
22826;SDS011;11580;52.562;13.418;2023-03-11T05:40:27;3.23;;;2.67;;
22826;SDS011;11580;52.562;13.418;2023-03-11T05:42:55;3.13;;;2.87;;
22826;SDS011;11580;52.562;13.418;2023-03-11T05:45:23;2.00;;;1.90;;
22826;SDS011;11580;52.562;13.418;2023-03-11T05:47:54;2.60;;;2.40;;
22826;SDS011;11580;52.562;13.418;2023-03-11T05:50:22;2.80;;;2.60;;
22826;SDS011;11580;52.562;13.418;2023-03-11T05:52:50;2.83;;;2.63;;
22826;SDS011;11580;52.562;13.418;2023-03-11T05:55:19;2.80;;;2.60;;
22826;SDS011;11580;52.562;13.418;2023-03-11T05:57:49;2.50;;;2.30;;
22826;SDS011;11580;52.562;13.418;2023-03-11T06:00:17;2.90;;;2.67;;
22826;SDS011;11580;52.562;13.418;2023-03-11T06:02:50;3.23;;;3.03;;
22826;SDS011;11580;52.562;13.418;2023-03-11T06:05:19;2.97;;;2.77;;
22826;SDS011;11580;52.562;13.418;2023-03-11T06:07:48;2.90;;;2.70;;
22826;SDS011;11580;52.562;13.418;2023-03-11T06:10:17;3.50;;;3.20;;
22826;SDS011;11580;52.562;13.418;2023-03-11T06:12:45;3.90;;;3.50;;
22826;SDS011;11580;52.562;13.418;2023-03-11T06:15:18;2.93;;;2.73;;
22826;SDS011;11580;52.562;13.418;2023-03-11T06:17:45;3.20;;;3.00;;
22826;SDS011;11580;52.562;13.418;2023-03-11T06:20:12;3.43;;;3.23;;
22826;SDS011;11580;52.562;13.418;2023-03-11T06:22:42;3.10;;;2.90;;
22826;SDS011;11580;52.562;13.418;2023-03-11T06:25:09;2.73;;;2.53;;
22826;SDS011;11580;52.562;13.418;2023-03-11T06:27:38;3.97;;;3.57;;
22826;SDS011;11580;52.562;13.418;2023-03-11T06:30:07;3.47;;;3.03;;
22826;SDS011;11580;52.562;13.418;2023-03-11T06:32:44;3.80;;;3.50;;
22826;SDS011;11580;52.562;13.418;2023-03-11T06:35:12;3.30;;;3.10;;
22826;SDS011;11580;52.562;13.418;2023-03-11T06:37:41;4.03;;;3.63;;
22826;SDS011;11580;52.562;13.418;2023-03-11T06:40:10;4.20;;;3.60;;
22826;SDS011;11580;52.562;13.418;2023-03-11T06:42:38;3.90;;;3.60;;
22826;SDS011;11580;52.562;13.418;2023-03-11T06:45:09;4.93;;;4.03;;
22826;SDS011;11580;52.562;13.418;2023-03-11T06:47:38;4.47;;;4.07;;
22826;SDS011;11580;52.562;13.418;2023-03-11T06:50:06;4.60;;;4.30;;
22826;SDS011;11580;52.562;13.418;2023-03-11T06:52:34;5.50;;;5.10;;
22826;SDS011;11580;52.562;13.418;2023-03-11T06:55:03;4.70;;;4.30;;
22826;SDS011;11580;52.562;13.418;2023-03-11T06:57:31;5.07;;;4.53;;
22826;SDS011;11580;52.562;13.418;2023-03-11T07:00:02;4.63;;;4.23;;
22826;SDS011;11580;52.562;13.418;2023-03-11T07:02:34;4.37;;;3.97;;
22826;SDS011;11580;52.562;13.418;2023-03-11T07:05:02;5.20;;;4.80;;
22826;SDS011;11580;52.562;13.418;2023-03-11T07:07:31;5.00;;;4.60;;
22826;SDS011;11580;52.562;13.418;2023-03-11T07:09:59;5.17;;;4.73;;
22826;SDS011;11580;52.562;13.418;2023-03-11T07:12:28;5.10;;;4.70;;
22826;SDS011;11580;52.562;13.418;2023-03-11T07:14:55;4.40;;;4.10;;
22826;SDS011;11580;52.562;13.418;2023-03-11T07:17:25;3.70;;;3.40;;
22826;SDS011;11580;52.562;13.418;2023-03-11T07:19:53;4.80;;;4.40;;
22826;SDS011;11580;52.562;13.418;2023-03-11T07:22:20;4.27;;;3.97;;
22826;SDS011;11580;52.562;13.418;2023-03-11T07:24:48;4.80;;;4.30;;
22826;SDS011;11580;52.562;13.418;2023-03-11T07:27:15;4.50;;;4.10;;
22826;SDS011;11580;52.562;13.418;2023-03-11T07:29:45;4.70;;;3.60;;
22826;SDS011;11580;52.562;13.418;2023-03-11T07:32:12;5.03;;;4.63;;
22826;SDS011;11580;52.562;13.418;2023-03-11T07:34:39;4.63;;;3.40;;
22826;SDS011;11580;52.562;13.418;2023-03-11T07:37:06;6.33;;;5.83;;
22826;SDS011;11580;52.562;13.418;2023-03-11T07:39:34;4.40;;;4.10;;
22826;SDS011;11580;52.562;13.418;2023-03-11T07:42:02;4.40;;;4.00;;
22826;SDS011;11580;52.562;13.418;2023-03-11T07:44:34;4.80;;;4.40;;
22826;SDS011;11580;52.562;13.418;2023-03-11T07:47:03;4.40;;;4.00;;
22826;SDS011;11580;52.562;13.418;2023-03-11T07:49:32;4.53;;;4.13;;
22826;SDS011;11580;52.562;13.418;2023-03-11T07:51:59;4.70;;;4.30;;
22826;SDS011;11580;52.562;13.418;2023-03-11T07:54:27;5.37;;;4.93;;
22826;SDS011;11580;52.562;13.418;2023-03-11T07:56:54;5.07;;;4.57;;
22826;SDS011;11580;52.562;13.418;2023-03-11T07:59:21;5.80;;;5.30;;
22826;SDS011;11580;52.562;13.418;2023-03-11T08:01:48;5.73;;;4.77;;
22826;SDS011;11580;52.562;13.418;2023-03-11T08:04:17;4.13;;;3.83;;
22826;SDS011;11580;52.562;13.418;2023-03-11T08:06:45;5.67;;;5.27;;
22826;SDS011;11580;52.562;13.418;2023-03-11T08:09:13;5.20;;;4.80;;
22826;SDS011;11580;52.562;13.418;2023-03-11T08:11:40;5.40;;;4.93;;
22826;SDS011;11580;52.562;13.418;2023-03-11T08:14:08;5.67;;;5.17;;
22826;SDS011;11580;52.562;13.418;2023-03-11T08:16:36;5.20;;;4.80;;
22826;SDS011;11580;52.562;13.418;2023-03-11T08:19:06;6.40;;;5.90;;
22826;SDS011;11580;52.562;13.418;2023-03-11T08:21:37;4.93;;;4.53;;
22826;SDS011;11580;52.562;13.418;2023-03-11T08:24:05;6.70;;;6.10;;
22826;SDS011;11580;52.562;13.418;2023-03-11T08:26:34;5.77;;;5.27;;
22826;SDS011;11580;52.562;13.418;2023-03-11T08:29:02;6.43;;;5.93;;
22826;SDS011;11580;52.562;13.418;2023-03-11T08:31:30;7.03;;;6.33;;
22826;SDS011;11580;52.562;13.418;2023-03-11T08:34:01;6.73;;;6.20;;
22826;SDS011;11580;52.562;13.418;2023-03-11T08:36:30;6.40;;;5.83;;
22826;SDS011;11580;52.562;13.418;2023-03-11T08:39:00;6.70;;;6.10;;
22826;SDS011;11580;52.562;13.418;2023-03-11T08:41:27;6.70;;;6.10;;
22826;SDS011;11580;52.562;13.418;2023-03-11T08:43:55;6.20;;;5.60;;
22826;SDS011;11580;52.562;13.418;2023-03-11T08:46:23;6.87;;;6.17;;
22826;SDS011;11580;52.562;13.418;2023-03-11T08:48:53;6.10;;;5.53;;
22826;SDS011;11580;52.562;13.418;2023-03-11T08:51:22;6.70;;;6.17;;
22826;SDS011;11580;52.562;13.418;2023-03-11T08:53:51;6.47;;;5.90;;
22826;SDS011;11580;52.562;13.418;2023-03-11T08:56:20;7.43;;;6.23;;
22826;SDS011;11580;52.562;13.418;2023-03-11T08:58:48;6.77;;;5.87;;
22826;SDS011;11580;52.562;13.418;2023-03-11T09:01:15;6.90;;;6.30;;
22826;SDS011;11580;52.562;13.418;2023-03-11T09:03:44;6.50;;;6.00;;
22826;SDS011;11580;52.562;13.418;2023-03-11T09:06:12;8.00;;;5.47;;
22826;SDS011;11580;52.562;13.418;2023-03-11T09:08:41;5.83;;;5.33;;
22826;SDS011;11580;52.562;13.418;2023-03-11T09:11:09;6.20;;;5.60;;
22826;SDS011;11580;52.562;13.418;2023-03-11T09:13:39;6.20;;;5.70;;
22826;SDS011;11580;52.562;13.418;2023-03-11T09:16:06;5.90;;;5.40;;
22826;SDS011;11580;52.562;13.418;2023-03-11T09:18:35;5.03;;;4.60;;
22826;SDS011;11580;52.562;13.418;2023-03-11T09:21:03;6.33;;;5.83;;
22826;SDS011;11580;52.562;13.418;2023-03-11T09:23:31;5.73;;;5.30;;
22826;SDS011;11580;52.562;13.418;2023-03-11T09:25:58;5.93;;;5.43;;
22826;SDS011;11580;52.562;13.418;2023-03-11T09:28:25;5.77;;;5.27;;
22826;SDS011;11580;52.562;13.418;2023-03-11T09:30:54;5.43;;;5.03;;
22826;SDS011;11580;52.562;13.418;2023-03-11T09:33:22;5.23;;;4.83;;
22826;SDS011;11580;52.562;13.418;2023-03-11T09:35:50;5.27;;;4.87;;
22826;SDS011;11580;52.562;13.418;2023-03-11T09:38:17;5.57;;;5.13;;
22826;SDS011;11580;52.562;13.418;2023-03-11T09:40:47;5.83;;;5.13;;
22826;SDS011;11580;52.562;13.418;2023-03-11T09:43:29;5.43;;;4.97;;
22826;SDS011;11580;52.562;13.418;2023-03-11T09:46:19;4.83;;;4.50;;
22826;SDS011;11580;52.562;13.418;2023-03-11T09:49:15;5.77;;;5.30;;
22826;SDS011;11580;52.562;13.418;2023-03-11T09:51:50;5.43;;;4.93;;
22826;SDS011;11580;52.562;13.418;2023-03-11T09:54:27;6.43;;;5.93;;
22826;SDS011;11580;52.562;13.418;2023-03-11T09:57:02;6.50;;;5.90;;
22826;SDS011;11580;52.562;13.418;2023-03-11T09:59:31;6.67;;;6.07;;
22826;SDS011;11580;52.562;13.418;2023-03-11T10:02:03;6.67;;;6.07;;
22826;SDS011;11580;52.562;13.418;2023-03-11T10:04:32;5.97;;;5.47;;
22826;SDS011;11580;52.562;13.418;2023-03-11T10:07:09;7.20;;;6.27;;
22826;SDS011;11580;52.562;13.418;2023-03-11T10:09:47;5.30;;;4.87;;
22826;SDS011;11580;52.562;13.418;2023-03-11T10:12:19;5.37;;;4.97;;
22826;SDS011;11580;52.562;13.418;2023-03-11T10:15:07;6.37;;;5.87;;
22826;SDS011;11580;52.562;13.418;2023-03-11T10:17:55;5.67;;;5.23;;
22826;SDS011;11580;52.562;13.418;2023-03-11T10:20:41;6.07;;;5.57;;
22826;SDS011;11580;52.562;13.418;2023-03-11T10:23:21;6.77;;;6.27;;
22826;SDS011;11580;52.562;13.418;2023-03-11T10:25:58;5.80;;;5.40;;
22826;SDS011;11580;52.562;13.418;2023-03-11T10:28:38;5.77;;;5.27;;
22826;SDS011;11580;52.562;13.418;2023-03-11T10:31:15;6.80;;;6.20;;
22826;SDS011;11580;52.562;13.418;2023-03-11T10:33:52;7.40;;;6.80;;
22826;SDS011;11580;52.562;13.418;2023-03-11T10:36:28;9.40;;;8.60;;
22826;SDS011;11580;52.562;13.418;2023-03-11T10:39:05;9.70;;;8.90;;
22826;SDS011;11580;52.562;13.418;2023-03-11T10:41:39;8.30;;;7.70;;
22826;SDS011;11580;52.562;13.418;2023-03-11T10:44:10;11.47;;;10.30;;
22826;SDS011;11580;52.562;13.418;2023-03-11T10:46:42;8.70;;;8.00;;
22826;SDS011;11580;52.562;13.418;2023-03-11T10:49:12;8.90;;;8.17;;
22826;SDS011;11580;52.562;13.418;2023-03-11T10:51:42;8.50;;;7.67;;
22826;SDS011;11580;52.562;13.418;2023-03-11T10:54:19;8.30;;;7.07;;
22826;SDS011;11580;52.562;13.418;2023-03-11T10:56:53;7.33;;;6.73;;
22826;SDS011;11580;52.562;13.418;2023-03-11T10:59:24;8.20;;;7.40;;
22826;SDS011;11580;52.562;13.418;2023-03-11T11:01:55;9.00;;;8.20;;
22826;SDS011;11580;52.562;13.418;2023-03-11T11:04:31;11.27;;;10.27;;
22826;SDS011;11580;52.562;13.418;2023-03-11T11:07:18;11.73;;;10.73;;
22826;SDS011;11580;52.562;13.418;2023-03-11T11:10:11;10.47;;;9.57;;
22826;SDS011;11580;52.562;13.418;2023-03-11T11:12:53;10.17;;;9.37;;
22826;SDS011;11580;52.562;13.418;2023-03-11T11:15:23;8.33;;;7.73;;
22826;SDS011;11580;52.562;13.418;2023-03-11T11:17:56;9.73;;;8.93;;
22826;SDS011;11580;52.562;13.418;2023-03-11T11:20:28;10.03;;;9.03;;
22826;SDS011;11580;52.562;13.418;2023-03-11T11:22:58;11.07;;;10.07;;
22826;SDS011;11580;52.562;13.418;2023-03-11T11:25:29;11.33;;;10.40;;
22826;SDS011;11580;52.562;13.418;2023-03-11T11:28:00;10.87;;;9.90;;
22826;SDS011;11580;52.562;13.418;2023-03-11T11:30:30;10.80;;;9.70;;
22826;SDS011;11580;52.562;13.418;2023-03-11T11:33:15;10.80;;;9.80;;
22826;SDS011;11580;52.562;13.418;2023-03-11T11:35:51;11.83;;;10.83;;
22826;SDS011;11580;52.562;13.418;2023-03-11T11:38:22;12.43;;;11.33;;
22826;SDS011;11580;52.562;13.418;2023-03-11T11:40:52;13.63;;;12.50;;
22826;SDS011;11580;52.562;13.418;2023-03-11T11:43:28;12.60;;;11.50;;
22826;SDS011;11580;52.562;13.418;2023-03-11T11:46:10;12.77;;;11.67;;
22826;SDS011;11580;52.562;13.418;2023-03-11T11:48:49;12.80;;;11.60;;
22826;SDS011;11580;52.562;13.418;2023-03-11T11:51:31;13.13;;;11.93;;
22826;SDS011;11580;52.562;13.418;2023-03-11T11:54:06;13.00;;;11.70;;
22826;SDS011;11580;52.562;13.418;2023-03-11T11:56:42;13.13;;;11.97;;
22826;SDS011;11580;52.562;13.418;2023-03-11T11:59:12;14.43;;;13.00;;
22826;SDS011;11580;52.562;13.418;2023-03-11T12:01:46;13.73;;;12.47;;
22826;SDS011;11580;52.562;13.418;2023-03-11T12:04:34;12.70;;;11.50;;
22826;SDS011;11580;52.562;13.418;2023-03-11T12:07:34;13.70;;;12.60;;
22826;SDS011;11580;52.562;13.418;2023-03-11T12:10:21;11.60;;;10.50;;
22826;SDS011;11580;52.562;13.418;2023-03-11T12:15:59;12.90;;;11.70;;
22826;SDS011;11580;52.562;13.418;2023-03-11T12:18:36;11.73;;;10.70;;
22826;SDS011;11580;52.562;13.418;2023-03-11T12:21:11;14.57;;;13.23;;
22826;SDS011;11580;52.562;13.418;2023-03-11T12:24:01;13.67;;;12.47;;
22826;SDS011;11580;52.562;13.418;2023-03-11T12:26:46;12.10;;;11.00;;
22826;SDS011;11580;52.562;13.418;2023-03-11T12:29:20;12.50;;;11.40;;
22826;SDS011;11580;52.562;13.418;2023-03-11T12:31:53;12.40;;;11.40;;
22826;SDS011;11580;52.562;13.418;2023-03-11T12:34:22;11.57;;;10.53;;
22826;SDS011;11580;52.562;13.418;2023-03-11T12:36:50;11.93;;;10.83;;
22826;SDS011;11580;52.562;13.418;2023-03-11T12:39:29;12.00;;;10.97;;
22826;SDS011;11580;52.562;13.418;2023-03-11T12:42:13;14.07;;;11.20;;
22826;SDS011;11580;52.562;13.418;2023-03-11T12:44:43;11.90;;;11.00;;
22826;SDS011;11580;52.562;13.418;2023-03-11T12:47:24;10.40;;;9.50;;
22826;SDS011;11580;52.562;13.418;2023-03-11T12:49:53;11.80;;;10.80;;
22826;SDS011;11580;52.562;13.418;2023-03-11T12:52:51;12.30;;;11.23;;
22826;SDS011;11580;52.562;13.418;2023-03-11T12:55:31;11.30;;;10.30;;
22826;SDS011;11580;52.562;13.418;2023-03-11T12:58:10;13.07;;;11.87;;
22826;SDS011;11580;52.562;13.418;2023-03-11T13:04:28;12.90;;;11.77;;
22826;SDS011;11580;52.562;13.418;2023-03-11T13:10:13;12.00;;;11.00;;
22826;SDS011;11580;52.562;13.418;2023-03-11T13:12:47;10.63;;;9.80;;
22826;SDS011;11580;52.562;13.418;2023-03-11T13:15:30;11.33;;;10.43;;
22826;SDS011;11580;52.562;13.418;2023-03-11T13:18:16;11.57;;;10.47;;
22826;SDS011;11580;52.562;13.418;2023-03-11T13:20:52;12.77;;;11.43;;
22826;SDS011;11580;52.562;13.418;2023-03-11T13:23:24;12.73;;;11.53;;
22826;SDS011;11580;52.562;13.418;2023-03-11T13:26:16;11.97;;;10.67;;
22826;SDS011;11580;52.562;13.418;2023-03-11T13:29:02;10.80;;;9.83;;
22826;SDS011;11580;52.562;13.418;2023-03-11T13:32:24;10.60;;;9.60;;
22826;SDS011;11580;52.562;13.418;2023-03-11T13:35:11;12.67;;;11.37;;
22826;SDS011;11580;52.562;13.418;2023-03-11T13:38:04;11.53;;;10.43;;
22826;SDS011;11580;52.562;13.418;2023-03-11T13:40:56;10.77;;;9.83;;
22826;SDS011;11580;52.562;13.418;2023-03-11T13:43:27;10.17;;;9.37;;
22826;SDS011;11580;52.562;13.418;2023-03-11T13:45:57;10.67;;;9.77;;
22826;SDS011;11580;52.562;13.418;2023-03-11T13:48:31;11.80;;;10.70;;
22826;SDS011;11580;52.562;13.418;2023-03-11T13:51:06;11.60;;;10.60;;
22826;SDS011;11580;52.562;13.418;2023-03-11T13:53:43;10.80;;;9.90;;
22826;SDS011;11580;52.562;13.418;2023-03-11T13:56:17;9.30;;;8.40;;
22826;SDS011;11580;52.562;13.418;2023-03-11T13:58:50;10.83;;;9.83;;
22826;SDS011;11580;52.562;13.418;2023-03-11T14:01:19;9.87;;;9.07;;
22826;SDS011;11580;52.562;13.418;2023-03-11T14:03:46;9.20;;;8.50;;
22826;SDS011;11580;52.562;13.418;2023-03-11T14:06:15;8.40;;;7.70;;
22826;SDS011;11580;52.562;13.418;2023-03-11T14:08:51;10.10;;;9.20;;
22826;SDS011;11580;52.562;13.418;2023-03-11T14:11:19;9.17;;;8.40;;
22826;SDS011;11580;52.562;13.418;2023-03-11T14:13:53;7.30;;;6.60;;
22826;SDS011;11580;52.562;13.418;2023-03-11T14:16:22;8.07;;;7.37;;
22826;SDS011;11580;52.562;13.418;2023-03-11T14:19:00;7.93;;;7.20;;
22826;SDS011;11580;52.562;13.418;2023-03-11T14:21:32;6.53;;;6.00;;
22826;SDS011;11580;52.562;13.418;2023-03-11T14:24:00;7.27;;;6.67;;
22826;SDS011;11580;52.562;13.418;2023-03-11T14:26:29;7.17;;;6.57;;
22826;SDS011;11580;52.562;13.418;2023-03-11T14:29:01;6.50;;;6.00;;
22826;SDS011;11580;52.562;13.418;2023-03-11T14:31:37;7.50;;;6.80;;
22826;SDS011;11580;52.562;13.418;2023-03-11T14:34:12;9.30;;;6.80;;
22826;SDS011;11580;52.562;13.418;2023-03-11T14:36:42;6.80;;;6.20;;
22826;SDS011;11580;52.562;13.418;2023-03-11T14:39:22;6.37;;;5.87;;
22826;SDS011;11580;52.562;13.418;2023-03-11T14:41:56;6.93;;;6.33;;
22826;SDS011;11580;52.562;13.418;2023-03-11T14:44:31;7.90;;;7.00;;
22826;SDS011;11580;52.562;13.418;2023-03-11T14:47:08;7.20;;;6.57;;
22826;SDS011;11580;52.562;13.418;2023-03-11T14:49:44;7.77;;;6.63;;
22826;SDS011;11580;52.562;13.418;2023-03-11T14:52:16;7.20;;;6.50;;
22826;SDS011;11580;52.562;13.418;2023-03-11T14:54:58;7.10;;;6.50;;
22826;SDS011;11580;52.562;13.418;2023-03-11T14:57:31;6.73;;;6.13;;
22826;SDS011;11580;52.562;13.418;2023-03-11T15:00:04;6.10;;;5.57;;
22826;SDS011;11580;52.562;13.418;2023-03-11T15:02:43;6.13;;;5.27;;
22826;SDS011;11580;52.562;13.418;2023-03-11T15:05:26;6.37;;;5.87;;
22826;SDS011;11580;52.562;13.418;2023-03-11T15:08:02;6.00;;;5.50;;